sensor_id;sensor_type;location;lat;lon;timestamp;P1;durP1;ratioP1;P2;durP2;ratioP2
43823;SDS011;29470;53.550;9.926;2023-04-19T00:03:04;11.90;;;5.30;;
43823;SDS011;29470;53.550;9.926;2023-04-19T00:08:08;11.60;;;4.90;;
43823;SDS011;29470;53.550;9.926;2023-04-19T00:13:11;12.55;;;5.68;;
43823;SDS011;29470;53.550;9.926;2023-04-19T00:18:15;10.60;;;5.00;;
43823;SDS011;29470;53.550;9.926;2023-04-19T00:23:18;15.48;;;5.57;;
43823;SDS011;29470;53.550;9.926;2023-04-19T00:28:21;12.43;;;5.55;;
43823;SDS011;29470;53.550;9.926;2023-04-19T00:33:25;14.77;;;5.53;;
43823;SDS011;29470;53.550;9.926;2023-04-19T00:38:30;12.02;;;5.35;;
43823;SDS011;29470;53.550;9.926;2023-04-19T00:43:33;7.93;;;5.05;;
43823;SDS011;29470;53.550;9.926;2023-04-19T00:48:37;10.15;;;5.07;;
43823;SDS011;29470;53.550;9.926;2023-04-19T00:53:40;11.02;;;5.15;;
43823;SDS011;29470;53.550;9.926;2023-04-19T00:58:44;12.23;;;4.80;;
43823;SDS011;29470;53.550;9.926;2023-04-19T01:03:49;8.57;;;4.65;;
43823;SDS011;29470;53.550;9.926;2023-04-19T01:08:54;8.68;;;4.65;;
43823;SDS011;29470;53.550;9.926;2023-04-19T01:13:57;9.77;;;4.50;;
43823;SDS011;29470;53.550;9.926;2023-04-19T01:19:01;10.88;;;4.90;;
43823;SDS011;29470;53.550;9.926;2023-04-19T01:24:06;11.30;;;4.85;;
43823;SDS011;29470;53.550;9.926;2023-04-19T01:29:09;9.65;;;4.47;;
43823;SDS011;29470;53.550;9.926;2023-04-19T01:34:11;6.60;;;3.88;;
43823;SDS011;29470;53.550;9.926;2023-04-19T01:39:16;9.10;;;4.10;;
43823;SDS011;29470;53.550;9.926;2023-04-19T01:44:18;7.40;;;3.85;;
43823;SDS011;29470;53.550;9.926;2023-04-19T01:49:21;9.27;;;3.58;;
43823;SDS011;29470;53.550;9.926;2023-04-19T01:54:25;8.00;;;3.80;;
43823;SDS011;29470;53.550;9.926;2023-04-19T01:59:28;6.50;;;3.08;;
43823;SDS011;29470;53.550;9.926;2023-04-19T02:04:32;4.68;;;3.08;;
43823;SDS011;29470;53.550;9.926;2023-04-19T02:09:36;5.95;;;3.13;;
43823;SDS011;29470;53.550;9.926;2023-04-19T02:14:39;5.57;;;3.33;;
43823;SDS011;29470;53.550;9.926;2023-04-19T02:19:42;7.93;;;3.58;;
43823;SDS011;29470;53.550;9.926;2023-04-19T02:24:48;8.75;;;3.30;;
43823;SDS011;29470;53.550;9.926;2023-04-19T02:29:52;8.32;;;3.78;;
43823;SDS011;29470;53.550;9.926;2023-04-19T02:34:54;8.15;;;3.78;;
43823;SDS011;29470;53.550;9.926;2023-04-19T02:39:58;9.52;;;3.92;;
43823;SDS011;29470;53.550;9.926;2023-04-19T02:45:03;9.57;;;3.53;;
43823;SDS011;29470;53.550;9.926;2023-04-19T02:50:06;8.68;;;3.42;;
43823;SDS011;29470;53.550;9.926;2023-04-19T02:55:17;6.85;;;3.45;;
43823;SDS011;29470;53.550;9.926;2023-04-19T03:00:24;6.53;;;3.72;;
43823;SDS011;29470;53.550;9.926;2023-04-19T03:05:37;8.15;;;4.00;;
43823;SDS011;29470;53.550;9.926;2023-04-19T03:10:41;6.53;;;3.55;;
43823;SDS011;29470;53.550;9.926;2023-04-19T03:15:44;9.57;;;3.70;;
43823;SDS011;29470;53.550;9.926;2023-04-19T03:20:49;5.72;;;3.35;;
43823;SDS011;29470;53.550;9.926;2023-04-19T03:25:54;8.23;;;3.72;;
43823;SDS011;29470;53.550;9.926;2023-04-19T03:31:05;4.78;;;3.10;;
43823;SDS011;29470;53.550;9.926;2023-04-19T03:36:08;6.10;;;3.17;;
43823;SDS011;29470;53.550;9.926;2023-04-19T03:41:18;6.72;;;3.40;;
43823;SDS011;29470;53.550;9.926;2023-04-19T03:46:26;6.82;;;3.40;;
43823;SDS011;29470;53.550;9.926;2023-04-19T03:51:32;9.00;;;3.20;;
43823;SDS011;29470;53.550;9.926;2023-04-19T03:56:36;7.20;;;3.30;;
43823;SDS011;29470;53.550;9.926;2023-04-19T04:01:40;6.72;;;4.18;;
43823;SDS011;29470;53.550;9.926;2023-04-19T04:06:43;7.30;;;3.58;;
43823;SDS011;29470;53.550;9.926;2023-04-19T04:11:50;6.40;;;3.42;;
43823;SDS011;29470;53.550;9.926;2023-04-19T04:16:54;9.65;;;4.32;;
43823;SDS011;29470;53.550;9.926;2023-04-19T04:21:57;10.35;;;3.53;;
43823;SDS011;29470;53.550;9.926;2023-04-19T04:27:02;9.15;;;3.50;;
43823;SDS011;29470;53.550;9.926;2023-04-19T04:32:09;9.50;;;3.58;;
43823;SDS011;29470;53.550;9.926;2023-04-19T04:37:15;8.15;;;3.20;;
43823;SDS011;29470;53.550;9.926;2023-04-19T04:42:22;5.28;;;3.13;;
43823;SDS011;29470;53.550;9.926;2023-04-19T04:47:29;9.25;;;3.67;;
43823;SDS011;29470;53.550;9.926;2023-04-19T04:52:34;7.97;;;3.10;;
43823;SDS011;29470;53.550;9.926;2023-04-19T04:57:53;6.82;;;3.50;;
43823;SDS011;29470;53.550;9.926;2023-04-19T05:03:15;5.93;;;3.00;;
43823;SDS011;29470;53.550;9.926;2023-04-19T05:08:25;8.70;;;3.40;;
43823;SDS011;29470;53.550;9.926;2023-04-19T05:13:35;7.95;;;3.33;;
43823;SDS011;29470;53.550;9.926;2023-04-19T05:18:38;5.88;;;2.90;;
43823;SDS011;29470;53.550;9.926;2023-04-19T05:23:41;6.95;;;3.13;;
43823;SDS011;29470;53.550;9.926;2023-04-19T05:28:47;6.43;;;2.60;;
43823;SDS011;29470;53.550;9.926;2023-04-19T05:33:55;4.68;;;2.50;;
43823;SDS011;29470;53.550;9.926;2023-04-19T05:38:58;4.38;;;2.28;;
43823;SDS011;29470;53.550;9.926;2023-04-19T05:44:03;5.28;;;2.70;;
43823;SDS011;29470;53.550;9.926;2023-04-19T05:49:06;4.40;;;2.33;;
43823;SDS011;29470;53.550;9.926;2023-04-19T05:54:31;6.60;;;2.22;;
43823;SDS011;29470;53.550;9.926;2023-04-19T05:59:38;3.83;;;2.03;;
43823;SDS011;29470;53.550;9.926;2023-04-19T06:04:41;3.45;;;1.60;;
43823;SDS011;29470;53.550;9.926;2023-04-19T06:09:44;4.68;;;1.63;;
43823;SDS011;29470;53.550;9.926;2023-04-19T06:14:49;3.35;;;1.42;;
43823;SDS011;29470;53.550;9.926;2023-04-19T06:19:53;2.72;;;1.20;;
43823;SDS011;29470;53.550;9.926;2023-04-19T06:24:56;3.38;;;1.20;;
43823;SDS011;29470;53.550;9.926;2023-04-19T06:30:01;4.65;;;1.70;;
43823;SDS011;29470;53.550;9.926;2023-04-19T06:35:04;3.20;;;1.23;;
43823;SDS011;29470;53.550;9.926;2023-04-19T06:40:08;2.03;;;1.25;;
43823;SDS011;29470;53.550;9.926;2023-04-19T06:45:13;2.42;;;1.55;;
43823;SDS011;29470;53.550;9.926;2023-04-19T06:50:16;3.25;;;1.80;;
43823;SDS011;29470;53.550;9.926;2023-04-19T06:55:19;3.63;;;1.08;;
43823;SDS011;29470;53.550;9.926;2023-04-19T07:00:23;1.83;;;1.02;;
43823;SDS011;29470;53.550;9.926;2023-04-19T07:05:26;2.15;;;0.90;;
43823;SDS011;29470;53.550;9.926;2023-04-19T07:10:29;1.90;;;1.10;;
43823;SDS011;29470;53.550;9.926;2023-04-19T07:15:34;3.50;;;0.95;;
43823;SDS011;29470;53.550;9.926;2023-04-19T07:20:37;2.13;;;0.80;;
43823;SDS011;29470;53.550;9.926;2023-04-19T07:25:40;3.55;;;0.88;;
43823;SDS011;29470;53.550;9.926;2023-04-19T07:30:44;3.38;;;0.90;;
43823;SDS011;29470;53.550;9.926;2023-04-19T07:35:47;1.88;;;0.93;;
43823;SDS011;29470;53.550;9.926;2023-04-19T07:40:49;1.55;;;0.90;;
43823;SDS011;29470;53.550;9.926;2023-04-19T07:45:54;0.90;;;0.70;;
43823;SDS011;29470;53.550;9.926;2023-04-19T07:50:57;1.55;;;0.80;;
43823;SDS011;29470;53.550;9.926;2023-04-19T07:56:10;2.72;;;0.95;;
43823;SDS011;29470;53.550;9.926;2023-04-19T08:01:15;1.73;;;1.00;;
43823;SDS011;29470;53.550;9.926;2023-04-19T08:06:17;2.03;;;0.70;;
43823;SDS011;29470;53.550;9.926;2023-04-19T08:11:21;1.23;;;0.60;;
43823;SDS011;29470;53.550;9.926;2023-04-19T08:16:26;3.05;;;0.80;;
43823;SDS011;29470;53.550;9.926;2023-04-19T08:21:49;3.08;;;1.10;;
43823;SDS011;29470;53.550;9.926;2023-04-19T08:26:52;1.27;;;0.90;;
43823;SDS011;29470;53.550;9.926;2023-04-19T08:31:57;2.22;;;1.00;;
43823;SDS011;29470;53.550;9.926;2023-04-19T08:36:59;3.28;;;1.20;;
43823;SDS011;29470;53.550;9.926;2023-04-19T08:42:05;3.10;;;0.95;;
43823;SDS011;29470;53.550;9.926;2023-04-19T08:53:23;4.88;;;1.10;;
43823;SDS011;29470;53.550;9.926;2023-04-19T08:58:29;2.67;;;1.30;;
43823;SDS011;29470;53.550;9.926;2023-04-19T09:03:53;2.33;;;0.90;;
43823;SDS011;29470;53.550;9.926;2023-04-19T09:09:18;1.98;;;1.20;;
43823;SDS011;29470;53.550;9.926;2023-04-19T09:14:25;2.80;;;1.23;;
43823;SDS011;29470;53.550;9.926;2023-04-19T09:19:32;2.70;;;1.20;;
43823;SDS011;29470;53.550;9.926;2023-04-19T09:24:48;1.92;;;1.08;;
43823;SDS011;29470;53.550;9.926;2023-04-19T09:29:54;2.58;;;1.27;;
43823;SDS011;29470;53.550;9.926;2023-04-19T09:34:59;2.97;;;1.40;;
43823;SDS011;29470;53.550;9.926;2023-04-19T09:40:12;2.83;;;1.65;;
43823;SDS011;29470;53.550;9.926;2023-04-19T09:45:23;2.90;;;1.70;;
43823;SDS011;29470;53.550;9.926;2023-04-19T09:55:55;3.28;;;1.58;;
43823;SDS011;29470;53.550;9.926;2023-04-19T10:01:03;4.43;;;1.70;;
43823;SDS011;29470;53.550;9.926;2023-04-19T10:06:17;3.67;;;1.90;;
43823;SDS011;29470;53.550;9.926;2023-04-19T10:11:28;4.82;;;1.90;;
43823;SDS011;29470;53.550;9.926;2023-04-19T10:16:34;3.53;;;1.80;;
43823;SDS011;29470;53.550;9.926;2023-04-19T10:21:39;4.90;;;1.98;;
43823;SDS011;29470;53.550;9.926;2023-04-19T10:32:11;7.80;;;1.90;;
43823;SDS011;29470;53.550;9.926;2023-04-19T10:37:14;3.90;;;1.95;;
43823;SDS011;29470;53.550;9.926;2023-04-19T10:42:19;2.28;;;1.58;;
43823;SDS011;29470;53.550;9.926;2023-04-19T10:52:42;3.92;;;1.88;;
43823;SDS011;29470;53.550;9.926;2023-04-19T10:58:02;5.38;;;1.75;;
43823;SDS011;29470;53.550;9.926;2023-04-19T11:08:53;4.07;;;1.90;;
43823;SDS011;29470;53.550;9.926;2023-04-19T11:13:57;5.57;;;1.90;;
43823;SDS011;29470;53.550;9.926;2023-04-19T11:19:03;4.65;;;1.85;;
43823;SDS011;29470;53.550;9.926;2023-04-19T11:24:06;3.97;;;1.90;;
43823;SDS011;29470;53.550;9.926;2023-04-19T11:29:10;3.30;;;1.90;;
43823;SDS011;29470;53.550;9.926;2023-04-19T11:34:14;4.53;;;2.20;;
43823;SDS011;29470;53.550;9.926;2023-04-19T11:39:17;7.03;;;2.35;;
43823;SDS011;29470;53.550;9.926;2023-04-19T11:44:22;8.15;;;2.30;;
43823;SDS011;29470;53.550;9.926;2023-04-19T11:49:26;4.03;;;1.80;;
43823;SDS011;29470;53.550;9.926;2023-04-19T11:54:30;4.82;;;2.13;;
43823;SDS011;29470;53.550;9.926;2023-04-19T11:59:34;3.75;;;1.90;;
43823;SDS011;29470;53.550;9.926;2023-04-19T12:04:38;5.32;;;1.98;;
43823;SDS011;29470;53.550;9.926;2023-04-19T12:09:41;4.20;;;2.03;;
43823;SDS011;29470;53.550;9.926;2023-04-19T12:14:53;4.15;;;2.20;;
43823;SDS011;29470;53.550;9.926;2023-04-19T12:19:56;3.83;;;1.98;;
43823;SDS011;29470;53.550;9.926;2023-04-19T12:24:59;3.45;;;1.95;;
43823;SDS011;29470;53.550;9.926;2023-04-19T12:30:03;5.13;;;1.70;;
43823;SDS011;29470;53.550;9.926;2023-04-19T12:35:09;3.85;;;1.83;;
43823;SDS011;29470;53.550;9.926;2023-04-19T12:40:12;5.60;;;1.50;;
43823;SDS011;29470;53.550;9.926;2023-04-19T12:45:29;5.97;;;1.88;;
43823;SDS011;29470;53.550;9.926;2023-04-19T12:50:35;3.65;;;1.55;;
43823;SDS011;29470;53.550;9.926;2023-04-19T12:55:38;3.33;;;1.40;;
43823;SDS011;29470;53.550;9.926;2023-04-19T13:00:42;4.00;;;1.60;;
43823;SDS011;29470;53.550;9.926;2023-04-19T13:05:45;5.88;;;1.80;;
43823;SDS011;29470;53.550;9.926;2023-04-19T13:10:49;10.18;;;2.05;;
43823;SDS011;29470;53.550;9.926;2023-04-19T13:15:53;3.80;;;1.63;;
43823;SDS011;29470;53.550;9.926;2023-04-19T13:20:56;3.53;;;1.65;;
43823;SDS011;29470;53.550;9.926;2023-04-19T13:25:59;4.45;;;2.00;;
43823;SDS011;29470;53.550;9.926;2023-04-19T13:31:04;3.33;;;1.88;;
43823;SDS011;29470;53.550;9.926;2023-04-19T13:36:07;19.35;;;2.90;;
43823;SDS011;29470;53.550;9.926;2023-04-19T13:41:10;6.60;;;2.00;;
43823;SDS011;29470;53.550;9.926;2023-04-19T13:46:14;4.22;;;1.92;;
43823;SDS011;29470;53.550;9.926;2023-04-19T13:51:17;6.75;;;1.90;;
43823;SDS011;29470;53.550;9.926;2023-04-19T13:56:20;5.13;;;1.80;;
43823;SDS011;29470;53.550;9.926;2023-04-19T14:01:24;5.78;;;1.60;;
43823;SDS011;29470;53.550;9.926;2023-04-19T14:06:27;3.72;;;1.65;;
43823;SDS011;29470;53.550;9.926;2023-04-19T14:11:30;4.32;;;1.90;;
43823;SDS011;29470;53.550;9.926;2023-04-19T14:16:34;3.42;;;1.88;;
43823;SDS011;29470;53.550;9.926;2023-04-19T14:21:37;5.85;;;1.90;;
43823;SDS011;29470;53.550;9.926;2023-04-19T14:26:40;4.35;;;1.80;;
43823;SDS011;29470;53.550;9.926;2023-04-19T14:31:44;4.05;;;1.77;;
43823;SDS011;29470;53.550;9.926;2023-04-19T14:36:47;5.07;;;1.73;;
43823;SDS011;29470;53.550;9.926;2023-04-19T14:41:51;6.05;;;1.73;;
43823;SDS011;29470;53.550;9.926;2023-04-19T14:46:55;4.13;;;1.90;;
43823;SDS011;29470;53.550;9.926;2023-04-19T14:51:58;2.88;;;1.50;;
43823;SDS011;29470;53.550;9.926;2023-04-19T14:57:01;6.22;;;1.73;;
43823;SDS011;29470;53.550;9.926;2023-04-19T15:02:05;7.53;;;1.90;;
43823;SDS011;29470;53.550;9.926;2023-04-19T15:07:10;3.65;;;1.98;;
43823;SDS011;29470;53.550;9.926;2023-04-19T15:12:13;6.65;;;1.73;;
43823;SDS011;29470;53.550;9.926;2023-04-19T15:17:18;3.80;;;1.73;;
43823;SDS011;29470;53.550;9.926;2023-04-19T15:22:20;3.80;;;1.80;;
43823;SDS011;29470;53.550;9.926;2023-04-19T15:27:23;2.65;;;1.55;;
43823;SDS011;29470;53.550;9.926;2023-04-19T15:32:27;2.60;;;1.40;;
43823;SDS011;29470;53.550;9.926;2023-04-19T15:37:34;3.85;;;1.80;;
43823;SDS011;29470;53.550;9.926;2023-04-19T15:42:38;3.38;;;1.63;;
43823;SDS011;29470;53.550;9.926;2023-04-19T15:47:44;3.60;;;1.30;;
43823;SDS011;29470;53.550;9.926;2023-04-19T15:52:47;3.05;;;1.50;;
43823;SDS011;29470;53.550;9.926;2023-04-19T15:57:50;5.47;;;1.73;;
43823;SDS011;29470;53.550;9.926;2023-04-19T16:02:54;4.70;;;2.20;;
43823;SDS011;29470;53.550;9.926;2023-04-19T16:08:01;5.88;;;1.73;;
43823;SDS011;29470;53.550;9.926;2023-04-19T16:13:05;3.97;;;1.70;;
43823;SDS011;29470;53.550;9.926;2023-04-19T16:18:09;6.53;;;1.65;;
43823;SDS011;29470;53.550;9.926;2023-04-19T16:23:12;4.95;;;1.70;;
43823;SDS011;29470;53.550;9.926;2023-04-19T16:28:15;4.90;;;2.13;;
43823;SDS011;29470;53.550;9.926;2023-04-19T16:33:20;5.50;;;1.67;;
43823;SDS011;29470;53.550;9.926;2023-04-19T16:38:23;3.97;;;1.60;;
43823;SDS011;29470;53.550;9.926;2023-04-19T16:43:26;4.95;;;2.70;;
43823;SDS011;29470;53.550;9.926;2023-04-19T16:48:30;2.60;;;1.60;;
43823;SDS011;29470;53.550;9.926;2023-04-19T16:53:33;5.60;;;1.73;;
43823;SDS011;29470;53.550;9.926;2023-04-19T16:58:35;3.00;;;1.63;;
43823;SDS011;29470;53.550;9.926;2023-04-19T17:03:40;3.42;;;1.80;;
43823;SDS011;29470;53.550;9.926;2023-04-19T17:08:43;7.57;;;2.60;;
43823;SDS011;29470;53.550;9.926;2023-04-19T17:13:46;6.28;;;1.80;;
43823;SDS011;29470;53.550;9.926;2023-04-19T17:18:50;4.57;;;2.10;;
43823;SDS011;29470;53.550;9.926;2023-04-19T17:23:53;4.25;;;2.00;;
43823;SDS011;29470;53.550;9.926;2023-04-19T17:28:56;6.68;;;2.45;;
43823;SDS011;29470;53.550;9.926;2023-04-19T17:34:03;4.85;;;2.47;;
43823;SDS011;29470;53.550;9.926;2023-04-19T17:39:06;5.97;;;2.30;;
43823;SDS011;29470;53.550;9.926;2023-04-19T17:44:09;6.43;;;2.10;;
43823;SDS011;29470;53.550;9.926;2023-04-19T17:49:13;4.25;;;2.10;;
43823;SDS011;29470;53.550;9.926;2023-04-19T17:54:18;4.47;;;1.90;;
43823;SDS011;29470;53.550;9.926;2023-04-19T17:59:21;6.95;;;2.10;;
43823;SDS011;29470;53.550;9.926;2023-04-19T18:04:25;8.40;;;3.13;;
43823;SDS011;29470;53.550;9.926;2023-04-19T18:09:28;12.35;;;5.72;;
43823;SDS011;29470;53.550;9.926;2023-04-19T18:14:32;5.88;;;2.50;;
43823;SDS011;29470;53.550;9.926;2023-04-19T18:19:37;4.90;;;2.50;;
43823;SDS011;29470;53.550;9.926;2023-04-19T18:24:40;10.45;;;2.50;;
43823;SDS011;29470;53.550;9.926;2023-04-19T18:29:44;6.45;;;2.00;;
43823;SDS011;29470;53.550;9.926;2023-04-19T18:34:48;7.60;;;2.63;;
43823;SDS011;29470;53.550;9.926;2023-04-19T18:39:51;3.80;;;2.10;;
43823;SDS011;29470;53.550;9.926;2023-04-19T18:44:54;5.78;;;2.17;;
43823;SDS011;29470;53.550;9.926;2023-04-19T18:49:58;6.00;;;2.30;;
43823;SDS011;29470;53.550;9.926;2023-04-19T18:55:06;7.70;;;2.78;;
43823;SDS011;29470;53.550;9.926;2023-04-19T19:00:12;7.72;;;2.53;;
43823;SDS011;29470;53.550;9.926;2023-04-19T19:05:16;7.57;;;2.00;;
43823;SDS011;29470;53.550;9.926;2023-04-19T19:10:19;5.95;;;2.28;;
43823;SDS011;29470;53.550;9.926;2023-04-19T19:15:42;4.57;;;2.13;;
43823;SDS011;29470;53.550;9.926;2023-04-19T19:20:47;3.72;;;1.90;;
43823;SDS011;29470;53.550;9.926;2023-04-19T19:25:51;5.30;;;1.80;;
43823;SDS011;29470;53.550;9.926;2023-04-19T19:30:54;5.68;;;2.30;;
43823;SDS011;29470;53.550;9.926;2023-04-19T19:35:59;5.18;;;2.10;;
43823;SDS011;29470;53.550;9.926;2023-04-19T19:41:03;9.32;;;2.05;;
43823;SDS011;29470;53.550;9.926;2023-04-19T19:46:09;8.33;;;2.60;;
43823;SDS011;29470;53.550;9.926;2023-04-19T19:51:14;5.13;;;2.45;;
43823;SDS011;29470;53.550;9.926;2023-04-19T19:56:36;6.85;;;2.10;;
43823;SDS011;29470;53.550;9.926;2023-04-19T20:01:59;4.70;;;2.13;;
43823;SDS011;29470;53.550;9.926;2023-04-19T20:07:05;8.15;;;2.60;;
43823;SDS011;29470;53.550;9.926;2023-04-19T20:12:28;10.43;;;2.67;;
43823;SDS011;29470;53.550;9.926;2023-04-19T20:17:30;7.97;;;2.22;;
43823;SDS011;29470;53.550;9.926;2023-04-19T20:22:34;6.13;;;1.92;;
43823;SDS011;29470;53.550;9.926;2023-04-19T20:27:37;2.90;;;1.90;;
43823;SDS011;29470;53.550;9.926;2023-04-19T20:32:40;4.28;;;2.20;;
43823;SDS011;29470;53.550;9.926;2023-04-19T20:37:45;4.72;;;1.95;;
43823;SDS011;29470;53.550;9.926;2023-04-19T20:42:48;4.30;;;2.17;;
43823;SDS011;29470;53.550;9.926;2023-04-19T20:47:51;11.32;;;3.17;;
43823;SDS011;29470;53.550;9.926;2023-04-19T20:52:57;10.07;;;3.33;;
43823;SDS011;29470;53.550;9.926;2023-04-19T20:58:00;11.07;;;3.10;;
43823;SDS011;29470;53.550;9.926;2023-04-19T21:03:04;7.43;;;3.03;;
43823;SDS011;29470;53.550;9.926;2023-04-19T21:08:09;7.45;;;2.65;;
43823;SDS011;29470;53.550;9.926;2023-04-19T21:13:12;4.53;;;2.60;;
43823;SDS011;29470;53.550;9.926;2023-04-19T21:18:15;5.10;;;2.45;;
43823;SDS011;29470;53.550;9.926;2023-04-19T21:23:19;5.55;;;2.60;;
43823;SDS011;29470;53.550;9.926;2023-04-19T21:28:21;6.60;;;2.85;;
43823;SDS011;29470;53.550;9.926;2023-04-19T21:33:25;6.43;;;2.80;;
43823;SDS011;29470;53.550;9.926;2023-04-19T21:38:29;7.00;;;3.17;;
43823;SDS011;29470;53.550;9.926;2023-04-19T21:43:32;5.13;;;2.38;;
43823;SDS011;29470;53.550;9.926;2023-04-19T21:48:34;4.68;;;2.00;;
43823;SDS011;29470;53.550;9.926;2023-04-19T21:53:38;4.20;;;2.30;;
43823;SDS011;29470;53.550;9.926;2023-04-19T21:58:41;8.25;;;2.60;;
43823;SDS011;29470;53.550;9.926;2023-04-19T22:03:44;7.00;;;2.30;;
43823;SDS011;29470;53.550;9.926;2023-04-19T22:08:49;10.18;;;3.15;;
43823;SDS011;29470;53.550;9.926;2023-04-19T22:13:52;11.15;;;4.13;;
43823;SDS011;29470;53.550;9.926;2023-04-19T22:18:55;6.95;;;2.90;;
43823;SDS011;29470;53.550;9.926;2023-04-19T22:24:00;10.02;;;3.13;;
43823;SDS011;29470;53.550;9.926;2023-04-19T22:29:03;6.45;;;2.20;;
43823;SDS011;29470;53.550;9.926;2023-04-19T22:34:06;8.65;;;2.88;;
43823;SDS011;29470;53.550;9.926;2023-04-19T22:39:11;4.68;;;2.10;;
43823;SDS011;29470;53.550;9.926;2023-04-19T22:44:14;4.13;;;1.70;;
43823;SDS011;29470;53.550;9.926;2023-04-19T22:49:19;4.93;;;1.90;;
43823;SDS011;29470;53.550;9.926;2023-04-19T22:54:24;3.00;;;1.50;;
43823;SDS011;29470;53.550;9.926;2023-04-19T22:59:27;5.32;;;1.88;;
43823;SDS011;29470;53.550;9.926;2023-04-19T23:04:31;3.50;;;1.73;;
43823;SDS011;29470;53.550;9.926;2023-04-19T23:09:36;3.17;;;1.35;;
43823;SDS011;29470;53.550;9.926;2023-04-19T23:14:39;4.05;;;1.48;;
43823;SDS011;29470;53.550;9.926;2023-04-19T23:19:42;5.35;;;1.65;;
43823;SDS011;29470;53.550;9.926;2023-04-19T23:24:46;2.30;;;1.40;;
43823;SDS011;29470;53.550;9.926;2023-04-19T23:29:49;4.53;;;1.60;;
43823;SDS011;29470;53.550;9.926;2023-04-19T23:34:52;3.13;;;1.80;;
43823;SDS011;29470;53.550;9.926;2023-04-19T23:39:57;3.58;;;1.60;;
43823;SDS011;29470;53.550;9.926;2023-04-19T23:44:59;4.85;;;1.75;;
43823;SDS011;29470;53.550;9.926;2023-04-19T23:50:02;2.30;;;1.40;;
43823;SDS011;29470;53.550;9.926;2023-04-19T23:55:07;2.80;;;1.50;;
